CDT,Max TemperatureF,Mean TemperatureF,Min TemperatureF,Max Dew PointF,MeanDew PointF,Min DewpointF,Max Humidity, Mean Humidity, Min Humidity, Max Sea Level PressureIn, Mean Sea Level PressureIn, Min Sea Level PressureIn, Max VisibilityMiles, Mean VisibilityMiles, Min VisibilityMiles, Max Wind SpeedMPH, Mean Wind SpeedMPH, Max Gust SpeedMPH,PrecipitationIn, CloudCover, Events, WindDirDegrees
2013-10-1,81,66,51,59,52,41,87,62,33,29.97,29.82,29.77,10,10,10,18,7,24,0.00,0,,232
2013-10-2,76,58,41,46,39,32,89,52,20,30.10,30.03,29.97,10,10,10,9,4,,0.00,1,,140
2013-10-3,72,62,53,60,52,42,91,73,56,29.98,29.92,29.87,10,10,1,13,4,24,0.02,5,Rain,62
2013-10-4,59,58,56,57,56,54,95,93,89,30.06,30.00,29.91,10,7,2,12,5,17,0.01,8,Rain,48
2013-10-5,65,62,58,64,61,57,95,94,94,29.99,29.86,29.71,10,6,1,15,7,21,0.07,8,Rain,69
2013-10-6,62,54,46,59,43,36,93,67,39,29.74,29.71,29.67,10,10,10,14,5,,0.01,3,,259
2013-10-7,66,54,41,49,42,36,91,68,34,30.07,29.87,29.69,10,10,3,16,7,22,0.01,2,Rain,285
2013-10-8,76,56,37,49,43,36,95,67,27,30.14,30.09,30.04,10,10,7,18,3,24,0.00,0,,172
2013-10-9,74,59,44,50,47,43,93,68,37,30.19,30.15,30.10,10,10,7,13,3,17,0.00,0,,167
2013-10-10,74,56,39,51,45,38,95,73,32,30.18,30.12,30.06,10,8,0,10,2,17,0.00,0,Fog,130
2013-10-11,76,60,44,58,51,43,95,76,48,30.07,30.00,29.91,10,7,0,17,4,26,0.00,2,Fog,129
2013-10-12,72,61,50,60,49,36,80,60,36,30.13,29.94,29.87,10,10,10,17,9,26,0.00,4,Rain,208
2013-10-13,61,49,36,42,38,33,92,65,36,30.41,30.32,30.14,10,10,10,13,6,21,0.00,0,,286
2013-10-14,62,47,32,43,38,31,96,74,37,30.45,30.34,30.17,10,10,7,12,3,16,0.00,0,,106
2013-10-15,58,52,46,56,50,42,94,89,77,30.15,29.87,29.71,10,7,2,16,6,22,0.09,6,Rain,141
2013-10-16,54,51,48,48,45,39,94,79,65,29.92,29.83,29.74,10,10,7,10,6,,0.31,8,Rain,286
2013-10-17,57,49,41,42,39,33,92,74,39,29.91,29.83,29.77,10,10,7,12,2,,0.05,4,,252
2013-10-18,50,44,38,45,40,36,93,85,74,29.92,29.83,29.77,10,10,2,16,3,22,0.01,6,Rain,264
2013-10-19,54,42,30,40,34,29,96,82,38,29.88,29.77,29.68,10,10,2,17,2,30,0.01,3,Rain,233
2013-10-20,47,39,31,45,38,30,96,93,84,29.84,29.75,29.66,10,6,0,16,4,21,0.01,6,Fog-Rain,197
2013-10-21,46,40,34,41,28,19,81,65,46,29.88,29.83,29.69,10,10,10,18,12,26,0.00,7,,267
2013-10-22,47,39,31,30,26,23,82,63,42,29.96,29.91,29.85,10,10,10,14,9,23,0.00,3,,300
2013-10-23,45,38,30,30,25,18,81,65,34,29.99,29.96,29.93,10,10,10,15,6,21,0.00,6,,283
2013-10-24,44,38,32,28,26,23,82,62,47,30.26,30.12,29.99,10,10,10,13,8,21,0.00,6,,287
2013-10-25,51,39,27,32,28,24,94,63,39,30.30,30.12,29.75,10,10,10,22,7,34,0.00,4,,234
2013-10-26,52,46,39,36,31,25,73,54,38,30.03,29.87,29.69,10,10,10,21,12,28,0.00,5,,290
2013-10-27,56,42,29,32,29,25,92,65,31,30.07,29.95,29.84,10,10,10,16,4,24,0.00,1,,246
2013-10-28,44,36,27,32,25,22,86,61,44,30.45,30.35,30.09,10,10,10,15,6,23,0.00,3,,40
2013-10-29,45,34,24,39,31,21,90,79,71,30.44,30.32,30.16,10,10,10,9,3,,0.00,6,,52
2013-10-30,53,44,36,52,44,34,95,90,83,30.15,30.00,29.75,10,4,0,10,2,,0.00,7,Fog-Rain,109
2013-10-31,57,51,45,56,52,43,96,95,92,29.75,29.42,29.23,10,3,0,16,3,26,0.10,8,Fog-Rain,278